| time (UTC) | temp F | wind direction | speed MPH | gust MPH | rain 1hr in | rain 24hr in | rain mn in | humidity % | barometer mb |
| 20260505041555 | 43 | 0.0 | 0.0 | 0.00 | 0.10 | 0.00 | 87 | 1006.2 | |
| 20260505040055 | 43 | 0.0 | 0.0 | 0.00 | 0.10 | 0.00 | 87 | 1006.0 | |
| 20260505034547 | 43 | 0.0 | 0.0 | 0.00 | 0.10 | 0.00 | 87 | 1005.8 | |
| 20260505033050 | 43 | 0.0 | 0.0 | 0.00 | 0.10 | 0.00 | 87 | 1005.7 | |
| 20260505031538 | 43 | 0.0 | 0.0 | 0.00 | 0.10 | 0.00 | 87 | 1005.5 | |
| 20260505030034 | 43 | 0.0 | 0.0 | 0.00 | 0.10 | 0.00 | 87 | 1005.2 | |
| 20260505024552 | 43 | 0.0 | 0.0 | 0.00 | 0.10 | 0.10 | 87 | 1005.1 | |
| 20260505023038 | 42 | 0.0 | 0.0 | 0.00 | 0.10 | 0.10 | 87 | 1004.9 | |
| 20260505021543 | 43 | 0.0 | 0.0 | 0.00 | 0.10 | 0.10 | 86 | 1004.7 | |
| 20260505020029 | 44 | 0.0 | 0.0 | 0.00 | 0.10 | 0.10 | 85 | 1004.5 | |
| 20260505014528 | 45 | 0.0 | 0.0 | 0.00 | 0.10 | 0.10 | 83 | 1004.2 | |
| 20260505013026 | 45 | 0.0 | 0.0 | 0.00 | 0.10 | 0.10 | 80 | 1004.1 | |
| 20260505011528 | 45 | 0.0 | 0.0 | 0.00 | 0.10 | 0.10 | 81 | 1003.8 | |
| 20260505010023 | 44 | 0.0 | 0.0 | 0.00 | 0.10 | 0.10 | 81 | 1003.8 | |
| 20260505004536 | 45 | 0.0 | 0.0 | 0.00 | 0.11 | 0.10 | 79 | 1003.8 | |
| 20260505003022 | 45 | 0.0 | 0.0 | 0.00 | 0.11 | 0.10 | 76 | 1003.7 | |
| 20260505001521 | 45 | 0.0 | 0.0 | 0.00 | 0.11 | 0.10 | 75 | 1003.7 | |
| 20260505000021 | 45 | 0.0 | 0.0 | 0.00 | 0.11 | 0.10 | 76 | 1003.3 | |
| 20260504234519 | 44 | 0.0 | 0.0 | 0.00 | 0.15 | 0.10 | 78 | 1003.0 | |
| 20260504233018 | 43 | 0.0 | 0.0 | 0.00 | 0.15 | 0.10 | 79 | 1003.0 | |
| 20260504231516 | 42 | 0.0 | 0.0 | 0.00 | 0.15 | 0.10 | 79 | 1002.9 | |
| 20260504230016 | 43 | 0.0 | 0.0 | 0.00 | 0.15 | 0.10 | 77 | 1002.8 | |
| 20260504224515 | 44 | 0.0 | 0.0 | 0.00 | 0.21 | 0.10 | 76 | 1002.7 | |
| 20260504223014 | 45 | 0.0 | 0.0 | 0.00 | 0.21 | 0.10 | 74 | 1002.7 | |
| 20260504221512 | 45 | 0.0 | 0.0 | 0.00 | 0.21 | 0.10 | 74 | 1002.5 | |
| 20260504220010 | 46 | 190 | 0.0 | 0.0 | 0.00 | 0.21 | 0.10 | 74 | 1002.3 |
| 20260504214509 | 46 | 191 | 0.0 | 0.0 | 0.00 | 0.24 | 0.10 | 73 | 1002.1 |
| 20260504213006 | 46 | 205 | 0.0 | 0.0 | 0.00 | 0.24 | 0.10 | 75 | 1002.0 |
| 20260504211503 | 46 | 215 | 0.0 | 0.0 | 0.00 | 0.24 | 0.10 | 77 | 1001.8 |
| 20260504210002 | 45 | 172 | 0.0 | 0.0 | 0.00 | 0.24 | 0.10 | 77 | 1001.6 |
| 20260504204618 | 45 | 203 | 0.0 | 0.0 | 0.00 | 0.28 | 0.10 | 78 | 1001.3 |
| 20260504203058 | 46 | 182 | 0.0 | 0.0 | 0.00 | 0.28 | 0.10 | 78 | 1001.2 |
| 20260504201608 | 45 | 205 | 0.0 | 0.0 | 0.00 | 0.28 | 0.10 | 80 | 1001.1 |
| 20260504200107 | 45 | 217 | 0.0 | 0.0 | 0.00 | 0.28 | 0.10 | 80 | 1000.7 |
| 20260504194553 | 45 | 198 | 0.0 | 0.0 | 0.00 | 0.33 | 0.10 | 80 | 1000.5 |
| 20260504193050 | 45 | 195 | 0.0 | 0.0 | 0.00 | 0.33 | 0.10 | 81 | 1000.4 |
| 20260504191547 | 43 | 182 | 0.0 | 0.0 | 0.00 | 0.33 | 0.10 | 86 | 1000.2 |
| 20260504190047 | 43 | 186 | 0.0 | 0.0 | 0.00 | 0.33 | 0.10 | 86 | 1000.0 |
| 20260504184550 | 44 | 189 | 0.0 | 0.0 | 0.00 | 0.33 | 0.10 | 87 | 999.9 |
| 20260504183044 | 43 | 205 | 0.0 | 0.0 | 0.00 | 0.33 | 0.10 | 87 | 999.8 |
| 20260504181546 | 43 | 215 | 0.0 | 0.0 | 0.00 | 0.33 | 0.10 | 87 | 999.7 |
| 20260504180041 | 43 | 232 | 0.0 | 0.0 | 0.00 | 0.33 | 0.10 | 87 | 999.7 |
| 20260504174540 | 41 | 0.0 | 0.0 | 0.00 | 0.33 | 0.10 | 89 | 999.7 | |
| 20260504173039 | 42 | 0.0 | 0.0 | 0.00 | 0.33 | 0.10 | 88 | 999.2 | |
| 20260504171537 | 41 | 0.0 | 0.0 | 0.00 | 0.33 | 0.10 | 89 | 998.9 | |
| 20260504081520 | 38 | 0.0 | 0.0 | 0.03 | 0.31 | 0.08 | 88 | 978.0 | |
| 20260504050017 | 40 | 0.0 | 0.0 | 0.00 | 0.23 | 0.00 | 89 | 975.9 | |
| 20260504044507 | 41 | 0.0 | 0.0 | 0.00 | 0.23 | 0.00 | 88 | 976.3 | |
| 20260504043003 | 41 | 0.0 | 0.0 | 0.00 | 0.23 | 0.00 | 87 | 976.5 |